FlightSource - Aviation Photo Database

World Wide Airport Lookup


Search by ICAO
Or
Search by City

FlightSource.ca - Aviation Photo Database - Alghero / Fertilia Airport Information
Airport Identification
Name: Alghero / Fertilia Airport
ICAO: LIEA
IATA: AHO
Airport Location
City: Alghero
Region: 88
Country: Italy
Continent: Europe
Latitude: 40.6321
Longitude: 8.29077
Airport Information
Type: Medium Airport
Elevation: 87 Feet ASL
Flight Status: LIEA
More Info: LIEA
Airport Weather    
Metar: LIEA 241220Z 29010KT 240V320 9999 FEW025 28/18 Q1013
TAF:


Advertisement